sensor_id;sensor_type;location;lat;lon;timestamp;temperature;humidity
20246;DHT22;10281;54.406;18.556;2023-06-14T00:02:23;14.20;99.90
20246;DHT22;10281;54.406;18.556;2023-06-14T00:04:50;14.10;99.90
20246;DHT22;10281;54.406;18.556;2023-06-14T00:07:27;14.10;99.90
20246;DHT22;10281;54.406;18.556;2023-06-14T00:09:49;14.00;99.90
20246;DHT22;10281;54.406;18.556;2023-06-14T00:12:16;14.00;99.90
20246;DHT22;10281;54.406;18.556;2023-06-14T00:14:43;14.00;99.90
20246;DHT22;10281;54.406;18.556;2023-06-14T00:17:09;14.00;99.90
20246;DHT22;10281;54.406;18.556;2023-06-14T00:19:36;14.10;99.90
20246;DHT22;10281;54.406;18.556;2023-06-14T00:22:03;14.10;99.90
20246;DHT22;10281;54.406;18.556;2023-06-14T00:24:30;14.20;99.90
20246;DHT22;10281;54.406;18.556;2023-06-14T00:26:57;14.30;99.90
20246;DHT22;10281;54.406;18.556;2023-06-14T00:29:23;14.30;99.90
20246;DHT22;10281;54.406;18.556;2023-06-14T00:31:50;14.40;99.90
20246;DHT22;10281;54.406;18.556;2023-06-14T00:34:16;14.40;99.90
20246;DHT22;10281;54.406;18.556;2023-06-14T00:36:43;14.40;99.90
20246;DHT22;10281;54.406;18.556;2023-06-14T00:39:10;14.50;99.90
20246;DHT22;10281;54.406;18.556;2023-06-14T00:41:37;14.40;99.90
20246;DHT22;10281;54.406;18.556;2023-06-14T00:44:04;14.40;99.90
20246;DHT22;10281;54.406;18.556;2023-06-14T00:46:31;14.40;99.90
20246;DHT22;10281;54.406;18.556;2023-06-14T00:48:58;14.30;99.90
20246;DHT22;10281;54.406;18.556;2023-06-14T00:51:26;14.20;99.90
20246;DHT22;10281;54.406;18.556;2023-06-14T00:53:53;14.10;99.90
20246;DHT22;10281;54.406;18.556;2023-06-14T00:56:20;14.00;99.90
20246;DHT22;10281;54.406;18.556;2023-06-14T00:58:47;13.90;99.90
20246;DHT22;10281;54.406;18.556;2023-06-14T01:01:14;13.80;99.90
20246;DHT22;10281;54.406;18.556;2023-06-14T01:03:41;13.70;99.90
20246;DHT22;10281;54.406;18.556;2023-06-14T01:06:18;13.60;99.90
20246;DHT22;10281;54.406;18.556;2023-06-14T01:08:50;13.70;99.90
20246;DHT22;10281;54.406;18.556;2023-06-14T01:11:24;13.60;99.90
20246;DHT22;10281;54.406;18.556;2023-06-14T01:13:52;13.60;99.90
20246;DHT22;10281;54.406;18.556;2023-06-14T01:16:20;13.60;99.90
20246;DHT22;10281;54.406;18.556;2023-06-14T01:18:46;13.70;99.90
20246;DHT22;10281;54.406;18.556;2023-06-14T01:21:22;13.70;99.90
20246;DHT22;10281;54.406;18.556;2023-06-14T01:23:50;13.70;99.90
20246;DHT22;10281;54.406;18.556;2023-06-14T01:26:21;13.80;99.90
20246;DHT22;10281;54.406;18.556;2023-06-14T01:28:49;13.90;99.90
20246;DHT22;10281;54.406;18.556;2023-06-14T01:31:20;13.90;99.90
20246;DHT22;10281;54.406;18.556;2023-06-14T01:33:49;14.00;99.90
20246;DHT22;10281;54.406;18.556;2023-06-14T01:36:18;14.10;99.90
20246;DHT22;10281;54.406;18.556;2023-06-14T01:38:47;14.10;99.90
20246;DHT22;10281;54.406;18.556;2023-06-14T01:41:17;14.10;99.90
20246;DHT22;10281;54.406;18.556;2023-06-14T01:43:45;14.10;99.90
20246;DHT22;10281;54.406;18.556;2023-06-14T01:46:15;14.20;99.90
20246;DHT22;10281;54.406;18.556;2023-06-14T01:48:42;14.20;99.90
20246;DHT22;10281;54.406;18.556;2023-06-14T01:51:09;14.30;99.90
20246;DHT22;10281;54.406;18.556;2023-06-14T01:53:36;14.30;99.90
20246;DHT22;10281;54.406;18.556;2023-06-14T01:56:03;14.30;99.90
20246;DHT22;10281;54.406;18.556;2023-06-14T01:58:29;14.30;99.90
20246;DHT22;10281;54.406;18.556;2023-06-14T02:00:57;14.30;99.90
20246;DHT22;10281;54.406;18.556;2023-06-14T02:03:24;14.20;99.90
20246;DHT22;10281;54.406;18.556;2023-06-14T02:05:51;14.20;99.90
20246;DHT22;10281;54.406;18.556;2023-06-14T02:08:17;14.10;99.90
20246;DHT22;10281;54.406;18.556;2023-06-14T02:10:44;14.10;99.90
20246;DHT22;10281;54.406;18.556;2023-06-14T02:13:10;14.00;99.90
20246;DHT22;10281;54.406;18.556;2023-06-14T02:15:38;13.90;99.90
20246;DHT22;10281;54.406;18.556;2023-06-14T02:18:04;13.80;99.90
20246;DHT22;10281;54.406;18.556;2023-06-14T02:20:31;13.80;99.90
20246;DHT22;10281;54.406;18.556;2023-06-14T02:22:58;13.80;99.90
20246;DHT22;10281;54.406;18.556;2023-06-14T02:25:25;13.80;99.90
20246;DHT22;10281;54.406;18.556;2023-06-14T02:27:54;13.80;99.90
20246;DHT22;10281;54.406;18.556;2023-06-14T02:30:21;13.90;99.90
20246;DHT22;10281;54.406;18.556;2023-06-14T02:32:48;13.90;99.90
20246;DHT22;10281;54.406;18.556;2023-06-14T02:35:16;14.00;99.90
20246;DHT22;10281;54.406;18.556;2023-06-14T02:37:43;14.10;99.90
20246;DHT22;10281;54.406;18.556;2023-06-14T02:40:11;14.10;99.90
20246;DHT22;10281;54.406;18.556;2023-06-14T02:42:37;14.20;99.90
20246;DHT22;10281;54.406;18.556;2023-06-14T02:45:05;14.30;99.90
20246;DHT22;10281;54.406;18.556;2023-06-14T02:47:32;14.40;99.90
20246;DHT22;10281;54.406;18.556;2023-06-14T02:49:58;14.40;99.90
20246;DHT22;10281;54.406;18.556;2023-06-14T02:52:25;14.50;99.90
20246;DHT22;10281;54.406;18.556;2023-06-14T02:54:52;14.50;99.90
20246;DHT22;10281;54.406;18.556;2023-06-14T02:57:21;14.60;99.90
20246;DHT22;10281;54.406;18.556;2023-06-14T02:59:49;14.70;99.90
20246;DHT22;10281;54.406;18.556;2023-06-14T03:02:15;14.70;99.90
20246;DHT22;10281;54.406;18.556;2023-06-14T03:04:42;14.70;99.90
20246;DHT22;10281;54.406;18.556;2023-06-14T03:07:10;14.70;99.90
20246;DHT22;10281;54.406;18.556;2023-06-14T03:09:38;14.80;99.90
20246;DHT22;10281;54.406;18.556;2023-06-14T03:12:06;14.80;99.90
20246;DHT22;10281;54.406;18.556;2023-06-14T03:14:35;14.80;99.90
20246;DHT22;10281;54.406;18.556;2023-06-14T03:17:03;14.80;99.90
20246;DHT22;10281;54.406;18.556;2023-06-14T03:19:30;14.90;99.90
20246;DHT22;10281;54.406;18.556;2023-06-14T03:21:57;14.90;99.90
20246;DHT22;10281;54.406;18.556;2023-06-14T03:24:25;15.00;99.90
20246;DHT22;10281;54.406;18.556;2023-06-14T03:26:53;15.00;99.90
20246;DHT22;10281;54.406;18.556;2023-06-14T03:29:20;15.00;99.90
20246;DHT22;10281;54.406;18.556;2023-06-14T03:31:58;15.00;99.90
20246;DHT22;10281;54.406;18.556;2023-06-14T03:34:25;15.10;99.90
20246;DHT22;10281;54.406;18.556;2023-06-14T03:36:52;15.10;99.90
20246;DHT22;10281;54.406;18.556;2023-06-14T03:39:19;15.10;99.90
20246;DHT22;10281;54.406;18.556;2023-06-14T03:41:46;15.10;99.90
20246;DHT22;10281;54.406;18.556;2023-06-14T03:44:15;15.10;99.90
20246;DHT22;10281;54.406;18.556;2023-06-14T03:46:43;15.20;99.90
20246;DHT22;10281;54.406;18.556;2023-06-14T03:49:11;15.20;99.90
20246;DHT22;10281;54.406;18.556;2023-06-14T03:51:38;15.20;99.90
20246;DHT22;10281;54.406;18.556;2023-06-14T03:54:06;15.30;99.90
20246;DHT22;10281;54.406;18.556;2023-06-14T03:56:33;15.30;99.90
20246;DHT22;10281;54.406;18.556;2023-06-14T03:58:59;15.30;99.90
20246;DHT22;10281;54.406;18.556;2023-06-14T04:01:26;15.40;99.90
20246;DHT22;10281;54.406;18.556;2023-06-14T04:03:56;15.50;99.90
20246;DHT22;10281;54.406;18.556;2023-06-14T04:06:27;15.50;99.90
20246;DHT22;10281;54.406;18.556;2023-06-14T04:08:56;15.60;99.90
20246;DHT22;10281;54.406;18.556;2023-06-14T04:11:22;15.60;99.90
20246;DHT22;10281;54.406;18.556;2023-06-14T04:13:51;15.70;99.90
20246;DHT22;10281;54.406;18.556;2023-06-14T04:16:19;15.70;99.90
20246;DHT22;10281;54.406;18.556;2023-06-14T04:18:46;15.80;99.90
20246;DHT22;10281;54.406;18.556;2023-06-14T04:21:14;15.80;99.90
20246;DHT22;10281;54.406;18.556;2023-06-14T04:23:40;15.80;99.90
20246;DHT22;10281;54.406;18.556;2023-06-14T04:26:09;15.90;99.90
20246;DHT22;10281;54.406;18.556;2023-06-14T04:28:36;15.90;99.90
20246;DHT22;10281;54.406;18.556;2023-06-14T04:31:05;16.00;99.90
20246;DHT22;10281;54.406;18.556;2023-06-14T04:33:35;16.00;99.90
20246;DHT22;10281;54.406;18.556;2023-06-14T04:36:07;16.10;99.90
20246;DHT22;10281;54.406;18.556;2023-06-14T04:38:34;16.10;99.90
20246;DHT22;10281;54.406;18.556;2023-06-14T04:41:00;16.20;99.90
20246;DHT22;10281;54.406;18.556;2023-06-14T04:43:28;16.20;99.90
20246;DHT22;10281;54.406;18.556;2023-06-14T04:45:54;16.30;99.90
20246;DHT22;10281;54.406;18.556;2023-06-14T04:48:22;16.30;99.90
20246;DHT22;10281;54.406;18.556;2023-06-14T04:50:49;16.40;99.90
20246;DHT22;10281;54.406;18.556;2023-06-14T04:53:19;16.50;99.90
20246;DHT22;10281;54.406;18.556;2023-06-14T04:55:48;16.60;99.90
20246;DHT22;10281;54.406;18.556;2023-06-14T04:58:16;16.80;99.90
20246;DHT22;10281;54.406;18.556;2023-06-14T05:00:43;16.90;99.90
20246;DHT22;10281;54.406;18.556;2023-06-14T05:03:10;16.90;99.90
20246;DHT22;10281;54.406;18.556;2023-06-14T05:05:40;17.00;99.90
20246;DHT22;10281;54.406;18.556;2023-06-14T05:08:07;17.10;99.90
20246;DHT22;10281;54.406;18.556;2023-06-14T05:10:35;17.20;99.90
20246;DHT22;10281;54.406;18.556;2023-06-14T05:13:02;17.30;99.90
20246;DHT22;10281;54.406;18.556;2023-06-14T05:15:29;17.40;99.90
20246;DHT22;10281;54.406;18.556;2023-06-14T05:17:56;17.40;99.90
20246;DHT22;10281;54.406;18.556;2023-06-14T05:20:23;17.50;99.90
20246;DHT22;10281;54.406;18.556;2023-06-14T05:22:53;17.60;99.90
20246;DHT22;10281;54.406;18.556;2023-06-14T05:25:20;17.70;99.90
20246;DHT22;10281;54.406;18.556;2023-06-14T05:27:47;17.80;99.90
20246;DHT22;10281;54.406;18.556;2023-06-14T05:30:15;17.90;99.90
20246;DHT22;10281;54.406;18.556;2023-06-14T05:32:41;18.00;99.90
20246;DHT22;10281;54.406;18.556;2023-06-14T05:35:09;18.10;99.90
20246;DHT22;10281;54.406;18.556;2023-06-14T05:37:36;18.10;99.90
20246;DHT22;10281;54.406;18.556;2023-06-14T05:40:04;18.10;99.90
20246;DHT22;10281;54.406;18.556;2023-06-14T05:42:32;18.10;99.90
20246;DHT22;10281;54.406;18.556;2023-06-14T05:44:59;18.10;99.90
20246;DHT22;10281;54.406;18.556;2023-06-14T05:47:26;18.20;99.90
20246;DHT22;10281;54.406;18.556;2023-06-14T05:49:53;18.30;99.90
20246;DHT22;10281;54.406;18.556;2023-06-14T05:52:21;18.30;99.90
20246;DHT22;10281;54.406;18.556;2023-06-14T05:54:48;18.40;99.90
20246;DHT22;10281;54.406;18.556;2023-06-14T05:57:15;18.40;99.90
20246;DHT22;10281;54.406;18.556;2023-06-14T05:59:41;18.50;99.90
20246;DHT22;10281;54.406;18.556;2023-06-14T06:02:08;18.60;99.90
20246;DHT22;10281;54.406;18.556;2023-06-14T06:04:35;18.60;99.90
20246;DHT22;10281;54.406;18.556;2023-06-14T06:07:02;18.70;99.90
20246;DHT22;10281;54.406;18.556;2023-06-14T06:09:30;18.80;99.90
20246;DHT22;10281;54.406;18.556;2023-06-14T06:11:56;18.90;99.90
20246;DHT22;10281;54.406;18.556;2023-06-14T06:14:23;18.90;99.90
20246;DHT22;10281;54.406;18.556;2023-06-14T06:16:50;19.00;99.90
20246;DHT22;10281;54.406;18.556;2023-06-14T06:19:18;19.10;99.90
20246;DHT22;10281;54.406;18.556;2023-06-14T06:21:45;19.10;99.90
20246;DHT22;10281;54.406;18.556;2023-06-14T06:24:12;19.10;99.90
20246;DHT22;10281;54.406;18.556;2023-06-14T06:26:38;19.10;99.90
20246;DHT22;10281;54.406;18.556;2023-06-14T06:29:06;19.10;99.90
20246;DHT22;10281;54.406;18.556;2023-06-14T06:31:32;19.00;99.90
20246;DHT22;10281;54.406;18.556;2023-06-14T06:33:59;19.00;99.90
20246;DHT22;10281;54.406;18.556;2023-06-14T06:36:26;19.00;99.90
20246;DHT22;10281;54.406;18.556;2023-06-14T06:38:52;19.00;99.90
20246;DHT22;10281;54.406;18.556;2023-06-14T06:41:19;19.10;99.90
20246;DHT22;10281;54.406;18.556;2023-06-14T06:43:46;19.20;99.90
20246;DHT22;10281;54.406;18.556;2023-06-14T06:46:12;19.30;99.90
20246;DHT22;10281;54.406;18.556;2023-06-14T06:48:40;19.30;99.90
20246;DHT22;10281;54.406;18.556;2023-06-14T06:51:06;19.40;99.90
20246;DHT22;10281;54.406;18.556;2023-06-14T06:53:33;19.50;99.90
20246;DHT22;10281;54.406;18.556;2023-06-14T06:56:00;19.60;99.90
20246;DHT22;10281;54.406;18.556;2023-06-14T06:58:26;19.60;99.90
20246;DHT22;10281;54.406;18.556;2023-06-14T07:00:53;19.60;99.90
20246;DHT22;10281;54.406;18.556;2023-06-14T07:03:19;19.70;99.90
20246;DHT22;10281;54.406;18.556;2023-06-14T07:05:46;19.80;99.90
20246;DHT22;10281;54.406;18.556;2023-06-14T07:08:13;19.80;99.90
20246;DHT22;10281;54.406;18.556;2023-06-14T07:10:39;19.80;99.90
20246;DHT22;10281;54.406;18.556;2023-06-14T07:13:06;19.90;99.90
20246;DHT22;10281;54.406;18.556;2023-06-14T07:15:33;19.90;99.90
20246;DHT22;10281;54.406;18.556;2023-06-14T07:17:59;20.00;99.90
20246;DHT22;10281;54.406;18.556;2023-06-14T07:20:26;20.00;99.90
20246;DHT22;10281;54.406;18.556;2023-06-14T07:22:52;20.10;99.90
20246;DHT22;10281;54.406;18.556;2023-06-14T07:25:19;20.10;99.90
20246;DHT22;10281;54.406;18.556;2023-06-14T07:27:46;20.20;99.90
20246;DHT22;10281;54.406;18.556;2023-06-14T07:30:13;20.20;99.90
20246;DHT22;10281;54.406;18.556;2023-06-14T07:32:39;20.30;99.90
20246;DHT22;10281;54.406;18.556;2023-06-14T07:35:07;20.30;99.90
20246;DHT22;10281;54.406;18.556;2023-06-14T07:37:34;20.40;99.90
20246;DHT22;10281;54.406;18.556;2023-06-14T07:40:00;20.40;99.90
20246;DHT22;10281;54.406;18.556;2023-06-14T07:42:29;20.50;99.90
20246;DHT22;10281;54.406;18.556;2023-06-14T07:44:56;20.50;99.40
20246;DHT22;10281;54.406;18.556;2023-06-14T07:47:22;20.40;99.90
20246;DHT22;10281;54.406;18.556;2023-06-14T07:49:49;20.50;99.90
20246;DHT22;10281;54.406;18.556;2023-06-14T07:52:15;20.50;99.90
20246;DHT22;10281;54.406;18.556;2023-06-14T07:54:42;20.60;99.90
20246;DHT22;10281;54.406;18.556;2023-06-14T07:57:08;20.70;99.90
20246;DHT22;10281;54.406;18.556;2023-06-14T07:59:35;20.80;99.90
20246;DHT22;10281;54.406;18.556;2023-06-14T08:02:02;20.80;99.90
20246;DHT22;10281;54.406;18.556;2023-06-14T08:04:29;20.90;99.90
20246;DHT22;10281;54.406;18.556;2023-06-14T08:06:55;21.00;99.90
20246;DHT22;10281;54.406;18.556;2023-06-14T08:09:22;21.10;99.90
20246;DHT22;10281;54.406;18.556;2023-06-14T08:11:50;21.10;99.90
20246;DHT22;10281;54.406;18.556;2023-06-14T08:14:17;21.20;99.90
20246;DHT22;10281;54.406;18.556;2023-06-14T08:16:43;21.30;99.90
20246;DHT22;10281;54.406;18.556;2023-06-14T08:19:10;21.30;99.90
20246;DHT22;10281;54.406;18.556;2023-06-14T08:21:37;21.30;99.90
20246;DHT22;10281;54.406;18.556;2023-06-14T08:24:04;21.30;99.90
20246;DHT22;10281;54.406;18.556;2023-06-14T08:26:31;21.30;99.90
20246;DHT22;10281;54.406;18.556;2023-06-14T08:28:58;21.40;99.90
20246;DHT22;10281;54.406;18.556;2023-06-14T08:31:24;21.20;98.00
20246;DHT22;10281;54.406;18.556;2023-06-14T08:33:51;21.30;99.60
20246;DHT22;10281;54.406;18.556;2023-06-14T08:36:18;21.40;99.90
20246;DHT22;10281;54.406;18.556;2023-06-14T08:38:50;21.40;99.90
20246;DHT22;10281;54.406;18.556;2023-06-14T08:41:20;21.50;99.90
20246;DHT22;10281;54.406;18.556;2023-06-14T08:43:49;21.60;99.90
20246;DHT22;10281;54.406;18.556;2023-06-14T08:46:17;21.50;99.90
20246;DHT22;10281;54.406;18.556;2023-06-14T08:48:49;21.50;99.90
20246;DHT22;10281;54.406;18.556;2023-06-14T08:51:19;21.30;99.60
20246;DHT22;10281;54.406;18.556;2023-06-14T08:53:52;21.10;98.70
20246;DHT22;10281;54.406;18.556;2023-06-14T08:56:20;21.10;98.60
20246;DHT22;10281;54.406;18.556;2023-06-14T08:58:49;21.10;98.60
20246;DHT22;10281;54.406;18.556;2023-06-14T09:01:16;21.20;98.80
20246;DHT22;10281;54.406;18.556;2023-06-14T09:03:43;21.30;98.60
20246;DHT22;10281;54.406;18.556;2023-06-14T09:06:10;21.30;98.30
20246;DHT22;10281;54.406;18.556;2023-06-14T09:08:43;21.40;98.50
20246;DHT22;10281;54.406;18.556;2023-06-14T09:11:15;21.30;97.60
20246;DHT22;10281;54.406;18.556;2023-06-14T09:13:42;21.30;98.20
20246;DHT22;10281;54.406;18.556;2023-06-14T09:16:09;21.20;98.00
20246;DHT22;10281;54.406;18.556;2023-06-14T09:18:51;21.20;98.20
20246;DHT22;10281;54.406;18.556;2023-06-14T09:21:17;21.20;97.50
20246;DHT22;10281;54.406;18.556;2023-06-14T09:23:45;21.20;97.40
20246;DHT22;10281;54.406;18.556;2023-06-14T09:26:15;21.20;97.90
20246;DHT22;10281;54.406;18.556;2023-06-14T09:28:44;21.30;96.90
20246;DHT22;10281;54.406;18.556;2023-06-14T09:31:12;21.30;96.00
20246;DHT22;10281;54.406;18.556;2023-06-14T09:33:42;21.40;97.00
20246;DHT22;10281;54.406;18.556;2023-06-14T09:36:14;21.40;97.40
20246;DHT22;10281;54.406;18.556;2023-06-14T09:38:42;21.30;97.70
20246;DHT22;10281;54.406;18.556;2023-06-14T09:41:08;21.30;97.60
20246;DHT22;10281;54.406;18.556;2023-06-14T09:43:36;21.30;97.50
20246;DHT22;10281;54.406;18.556;2023-06-14T09:46:05;21.40;97.00
20246;DHT22;10281;54.406;18.556;2023-06-14T09:48:32;21.50;97.00
20246;DHT22;10281;54.406;18.556;2023-06-14T09:50:59;21.60;97.00
20246;DHT22;10281;54.406;18.556;2023-06-14T09:53:29;21.60;97.30
20246;DHT22;10281;54.406;18.556;2023-06-14T09:55:57;21.70;97.60
20246;DHT22;10281;54.406;18.556;2023-06-14T09:58:26;21.70;97.70
20246;DHT22;10281;54.406;18.556;2023-06-14T10:00:54;21.80;98.20
20246;DHT22;10281;54.406;18.556;2023-06-14T10:03:25;21.80;97.80
20246;DHT22;10281;54.406;18.556;2023-06-14T10:05:52;21.70;96.70
20246;DHT22;10281;54.406;18.556;2023-06-14T10:08:23;21.60;97.10
20246;DHT22;10281;54.406;18.556;2023-06-14T10:10:50;21.60;96.90
20246;DHT22;10281;54.406;18.556;2023-06-14T10:13:17;21.60;97.00
20246;DHT22;10281;54.406;18.556;2023-06-14T10:15:52;21.70;97.50
20246;DHT22;10281;54.406;18.556;2023-06-14T10:18:31;21.80;97.00
20246;DHT22;10281;54.406;18.556;2023-06-14T10:21:06;21.80;97.50
20246;DHT22;10281;54.406;18.556;2023-06-14T10:23:37;21.80;95.90
20246;DHT22;10281;54.406;18.556;2023-06-14T10:26:20;21.90;97.30
20246;DHT22;10281;54.406;18.556;2023-06-14T10:29:07;22.00;97.40
20246;DHT22;10281;54.406;18.556;2023-06-14T10:31:43;22.00;98.20
20246;DHT22;10281;54.406;18.556;2023-06-14T10:34:11;21.90;98.90
20246;DHT22;10281;54.406;18.556;2023-06-14T10:36:41;22.00;99.40
20246;DHT22;10281;54.406;18.556;2023-06-14T10:39:15;22.00;99.10
20246;DHT22;10281;54.406;18.556;2023-06-14T10:41:53;22.10;98.80
20246;DHT22;10281;54.406;18.556;2023-06-14T10:44:38;22.10;98.60
20246;DHT22;10281;54.406;18.556;2023-06-14T10:47:10;22.10;98.40
20246;DHT22;10281;54.406;18.556;2023-06-14T10:49:43;22.20;98.80
20246;DHT22;10281;54.406;18.556;2023-06-14T10:52:14;22.40;98.30
20246;DHT22;10281;54.406;18.556;2023-06-14T10:54:58;22.50;98.50
20246;DHT22;10281;54.406;18.556;2023-06-14T10:57:25;22.40;98.80
20246;DHT22;10281;54.406;18.556;2023-06-14T10:59:51;22.50;98.40
20246;DHT22;10281;54.406;18.556;2023-06-14T11:05:08;22.60;98.00
20246;DHT22;10281;54.406;18.556;2023-06-14T11:08:07;22.70;98.40
20246;DHT22;10281;54.406;18.556;2023-06-14T11:10:37;22.70;98.10
20246;DHT22;10281;54.406;18.556;2023-06-14T11:13:04;22.90;98.10
20246;DHT22;10281;54.406;18.556;2023-06-14T11:15:33;23.00;98.20
20246;DHT22;10281;54.406;18.556;2023-06-14T11:18:02;23.10;98.30
20246;DHT22;10281;54.406;18.556;2023-06-14T11:20:31;23.10;98.60
20246;DHT22;10281;54.406;18.556;2023-06-14T11:22:58;23.10;98.70
20246;DHT22;10281;54.406;18.556;2023-06-14T11:25:26;23.10;99.00
20246;DHT22;10281;54.406;18.556;2023-06-14T11:27:56;23.10;99.00
20246;DHT22;10281;54.406;18.556;2023-06-14T11:30:23;23.10;99.90
20246;DHT22;10281;54.406;18.556;2023-06-14T11:32:53;22.80;99.90
20246;DHT22;10281;54.406;18.556;2023-06-14T11:35:23;22.80;99.90
20246;DHT22;10281;54.406;18.556;2023-06-14T11:37:56;22.80;99.90
20246;DHT22;10281;54.406;18.556;2023-06-14T11:40:25;22.90;99.90
20246;DHT22;10281;54.406;18.556;2023-06-14T11:42:58;23.00;99.70
20246;DHT22;10281;54.406;18.556;2023-06-14T11:45:25;22.80;99.50
20246;DHT22;10281;54.406;18.556;2023-06-14T11:47:55;22.70;99.80
20246;DHT22;10281;54.406;18.556;2023-06-14T11:50:22;22.70;99.90
20246;DHT22;10281;54.406;18.556;2023-06-14T11:52:53;22.60;99.90
20246;DHT22;10281;54.406;18.556;2023-06-14T11:55:22;22.70;99.40
20246;DHT22;10281;54.406;18.556;2023-06-14T11:57:49;22.30;99.00
20246;DHT22;10281;54.406;18.556;2023-06-14T12:00:17;22.10;99.20
20246;DHT22;10281;54.406;18.556;2023-06-14T12:02:52;22.00;99.70
20246;DHT22;10281;54.406;18.556;2023-06-14T12:05:22;22.00;99.70
20246;DHT22;10281;54.406;18.556;2023-06-14T12:07:50;22.20;99.70
20246;DHT22;10281;54.406;18.556;2023-06-14T12:10:19;22.30;99.50
20246;DHT22;10281;54.406;18.556;2023-06-14T12:12:45;22.10;99.20
20246;DHT22;10281;54.406;18.556;2023-06-14T12:15:12;22.10;99.60
20246;DHT22;10281;54.406;18.556;2023-06-14T12:17:39;22.10;99.40
20246;DHT22;10281;54.406;18.556;2023-06-14T12:20:12;22.10;99.10
20246;DHT22;10281;54.406;18.556;2023-06-14T12:22:52;22.20;98.20
20246;DHT22;10281;54.406;18.556;2023-06-14T12:25:26;22.30;98.80
20246;DHT22;10281;54.406;18.556;2023-06-14T12:27:54;22.40;97.80
20246;DHT22;10281;54.406;18.556;2023-06-14T12:30:22;22.40;95.30
20246;DHT22;10281;54.406;18.556;2023-06-14T12:32:48;22.40;96.10
20246;DHT22;10281;54.406;18.556;2023-06-14T12:35:17;22.40;96.10
20246;DHT22;10281;54.406;18.556;2023-06-14T12:37:45;22.60;96.20
20246;DHT22;10281;54.406;18.556;2023-06-14T12:40:13;22.50;97.60
20246;DHT22;10281;54.406;18.556;2023-06-14T12:42:41;22.40;97.70
20246;DHT22;10281;54.406;18.556;2023-06-14T12:45:09;22.30;97.40
20246;DHT22;10281;54.406;18.556;2023-06-14T12:47:36;22.20;97.80
20246;DHT22;10281;54.406;18.556;2023-06-14T12:50:03;22.10;97.60
20246;DHT22;10281;54.406;18.556;2023-06-14T12:52:30;22.10;98.40
20246;DHT22;10281;54.406;18.556;2023-06-14T12:54:57;22.20;98.70
20246;DHT22;10281;54.406;18.556;2023-06-14T12:57:23;22.20;98.10
20246;DHT22;10281;54.406;18.556;2023-06-14T12:59:50;22.10;98.60
20246;DHT22;10281;54.406;18.556;2023-06-14T13:02:17;21.90;98.50
20246;DHT22;10281;54.406;18.556;2023-06-14T13:04:45;21.60;99.30
20246;DHT22;10281;54.406;18.556;2023-06-14T13:07:11;21.60;99.50
20246;DHT22;10281;54.406;18.556;2023-06-14T13:09:38;21.60;99.70
20246;DHT22;10281;54.406;18.556;2023-06-14T13:12:05;21.50;99.40
20246;DHT22;10281;54.406;18.556;2023-06-14T13:14:32;21.40;99.30
20246;DHT22;10281;54.406;18.556;2023-06-14T13:16:59;21.50;99.60
20246;DHT22;10281;54.406;18.556;2023-06-14T13:19:26;21.60;99.60
20246;DHT22;10281;54.406;18.556;2023-06-14T13:21:52;21.50;99.80
20246;DHT22;10281;54.406;18.556;2023-06-14T13:24:19;21.50;99.90
20246;DHT22;10281;54.406;18.556;2023-06-14T13:26:46;21.40;98.90
20246;DHT22;10281;54.406;18.556;2023-06-14T13:29:12;21.40;99.20
20246;DHT22;10281;54.406;18.556;2023-06-14T13:31:39;21.40;99.00
20246;DHT22;10281;54.406;18.556;2023-06-14T13:34:06;21.50;99.00
20246;DHT22;10281;54.406;18.556;2023-06-14T13:36:32;21.50;98.60
20246;DHT22;10281;54.406;18.556;2023-06-14T13:38:59;21.50;99.40
20246;DHT22;10281;54.406;18.556;2023-06-14T13:41:28;21.60;99.90
20246;DHT22;10281;54.406;18.556;2023-06-14T13:43:58;21.50;99.90
20246;DHT22;10281;54.406;18.556;2023-06-14T13:46:25;21.60;99.90
20246;DHT22;10281;54.406;18.556;2023-06-14T13:48:52;21.70;99.90
20246;DHT22;10281;54.406;18.556;2023-06-14T13:51:18;21.60;99.80
20246;DHT22;10281;54.406;18.556;2023-06-14T13:53:48;21.30;99.50
20246;DHT22;10281;54.406;18.556;2023-06-14T13:56:15;21.30;99.90
20246;DHT22;10281;54.406;18.556;2023-06-14T13:58:42;21.10;99.90
20246;DHT22;10281;54.406;18.556;2023-06-14T14:01:09;20.80;99.80
20246;DHT22;10281;54.406;18.556;2023-06-14T14:03:37;20.80;99.40
20246;DHT22;10281;54.406;18.556;2023-06-14T14:06:04;20.60;98.80
20246;DHT22;10281;54.406;18.556;2023-06-14T14:08:33;20.40;99.40
20246;DHT22;10281;54.406;18.556;2023-06-14T14:10:59;20.40;99.90
20246;DHT22;10281;54.406;18.556;2023-06-14T14:13:26;20.60;99.90
20246;DHT22;10281;54.406;18.556;2023-06-14T14:15:53;20.60;99.90
20246;DHT22;10281;54.406;18.556;2023-06-14T14:18:20;20.50;99.90
20246;DHT22;10281;54.406;18.556;2023-06-14T14:20:47;20.60;99.90
20246;DHT22;10281;54.406;18.556;2023-06-14T14:23:14;20.60;99.90
20246;DHT22;10281;54.406;18.556;2023-06-14T14:25:41;20.50;99.90
20246;DHT22;10281;54.406;18.556;2023-06-14T14:28:07;20.40;99.90
20246;DHT22;10281;54.406;18.556;2023-06-14T14:30:34;20.20;99.90
20246;DHT22;10281;54.406;18.556;2023-06-14T14:33:03;20.40;99.90
20246;DHT22;10281;54.406;18.556;2023-06-14T14:35:29;20.60;99.90
20246;DHT22;10281;54.406;18.556;2023-06-14T14:37:56;20.70;97.90
20246;DHT22;10281;54.406;18.556;2023-06-14T14:40:23;20.80;95.80
20246;DHT22;10281;54.406;18.556;2023-06-14T14:42:49;20.90;96.00
20246;DHT22;10281;54.406;18.556;2023-06-14T14:45:16;21.00;96.20
20246;DHT22;10281;54.406;18.556;2023-06-14T14:47:43;21.10;96.80
20246;DHT22;10281;54.406;18.556;2023-06-14T14:50:10;21.20;95.20
20246;DHT22;10281;54.406;18.556;2023-06-14T14:52:37;21.10;95.60
20246;DHT22;10281;54.406;18.556;2023-06-14T14:55:04;21.20;95.20
20246;DHT22;10281;54.406;18.556;2023-06-14T14:57:31;21.10;95.50
20246;DHT22;10281;54.406;18.556;2023-06-14T14:59:58;21.00;95.60
20246;DHT22;10281;54.406;18.556;2023-06-14T15:02:25;21.10;95.50
20246;DHT22;10281;54.406;18.556;2023-06-14T15:04:51;21.10;96.20
20246;DHT22;10281;54.406;18.556;2023-06-14T15:07:18;21.10;96.10
20246;DHT22;10281;54.406;18.556;2023-06-14T15:09:45;21.20;95.70
20246;DHT22;10281;54.406;18.556;2023-06-14T15:12:11;21.20;95.90
20246;DHT22;10281;54.406;18.556;2023-06-14T15:14:38;21.20;96.20
20246;DHT22;10281;54.406;18.556;2023-06-14T15:17:05;21.10;96.40
20246;DHT22;10281;54.406;18.556;2023-06-14T15:19:32;21.10;96.60
20246;DHT22;10281;54.406;18.556;2023-06-14T15:22:00;20.90;96.30
20246;DHT22;10281;54.406;18.556;2023-06-14T15:24:26;21.00;97.00